AirNav   ATP
 
 968 users online  

6D1 Brooten Municipal Airport/John O. Bohmer Field
Brooten, Minnesota, USA

GOING TO BROOTEN?


FAA INFORMATION EFFECTIVE 24 MAY 2018

Location

FAA Identifier: 6D1
Lat/Long: 45-29-49.3750N / 095-06-15.1550W
45-29.822917N / 095-06.252583W
45.4970486 / -95.1042097
(estimated)
Elevation: 1305 ft. / 398 m (estimated)
Variation: 05E (1985)
From city: 1 mile SE of BROOTEN, MN
Time zone: UTC -5 (UTC -6 during Standard Time)
Zip code: 56316

Airport Operations

Airport use: Open to the public
Activation date: 02/1968
Control tower: no
ARTCC: MINNEAPOLIS CENTER
FSS: PRINCETON FLIGHT SERVICE STATION
NOTAMs facility: PNM (NOTAM-D service available)
Attendance: UNATNDD
Wind indicator: lighted
Segmented circle: no
Lights: RY 15/33 MIRL PRESET TO LOW, INCR INTST - CTAF.
Beacon: white-green (lighted land airport)
Operates sunset to sunrise.

Airport Communications

CTAF: 122.9
WX AWOS-3 at GHW (13 nm NW): 118.925 (320-634-5660)
WX AWOS-3 at D39 (14 nm NE): 118.475 (320-352-0136)
WX AWOS-3 at PEX (17 nm SE): 120.35 (320-243-4538)

Nearby radio navigation aids

VOR radial/distance  VOR name  Freq  Var
BDHr358/22.8WILLMAR VOR/DME113.7004E
AXNr162/28.2ALEXANDRIA VOR/DME112.8007E
MOXr091/36.6MORRIS VOR/DME109.6005E
DWNr305/36.8DARWIN VORTAC109.0007E

 
NDB name  Hdg/Dist  Freq  Var  ID
GLENWOOD131/12.634603EGHW --. .... .--
BENSON061/25.223905EBBB -... -... -...

Airport Services

Parking: tiedowns

Runway Information

Runway 15/33

Dimensions: 3500 x 60 ft. / 1067 x 18 m
Surface: asphalt, in fair condition
Runway edge lights: medium intensity
RUNWAY 15  RUNWAY 33
Latitude: 45-30.073000N45-29.572833N
Longitude: 095-06.455667W095-06.049500W
Elevation: 1295.0 ft.1304.0 ft.
Gradient: 0.3%0.3%
Traffic pattern: leftleft
Markings: basic, in good conditionbasic, in good condition
Runway end identifier lights: nono

Airport Ownership and Management from official FAA records

Ownership: Publicly-owned
Owner: CITY OF BROOTEN
120 CENTRAL AVE NO, PO BOX 81
BROOTEN, MN 56316
Phone 612-346-2524
Manager: DAVID BOHMER
1080 FRONT STREET, PO BOX 400
BROOTEN, MN 56316
Phone 320-346-2234

Airport Operational Statistics

Aircraft based on the field: 3
Single engine airplanes: 3
    
Aircraft operations: avg 48/week *
52% transient general aviation
48% local general aviation
<1% military
* for 12-month period ending 30 April 2016

Additional Remarks

A58-33 RWY 33 HAS 2 FT CROPS 83 FT FROM THE RWY END AND 37 FT L
AGRI OPS DURING SUMMER MONTHS

Instrument Procedures

There are no published instrument procedures at 6D1.

Some nearby airports with instrument procedures:

KGHW - Glenwood Municipal Airport (13 nm NW)
D39 - Sauk Centre Municipal Airport (14 nm NE)
KPEX - Paynesville Municipal Airport (17 nm SE)
KBDH - Willmar Municipal Airport-John L Rice Fiel (23 nm S)
KBBB - Benson Municipal Airport (25 nm SW)
 
Loc | Ops | Rwys | IFR | FBO | Links
Com | Nav | Svcs | Stats | Notes

AirNav Hotels Sweepstakes
 
Area around 6D1 (Brooten Municipal Airport/John O. Bohmer Field)
 
Road maps at: MapQuest Bing Google
 
Aerial photo
WARNING: Photo may not be current or correct
Aerial photo of 6D1 (Brooten Municipal Airport/John O. Bohmer Field)
Photo by R. Johnson

Do you have a better or more recent aerial photo of Brooten Municipal Airport/John O. Bohmer Field that you would like to share? If so, please send us your photo.

 
Sectional chart

 
Airport distance calculator
Flying to Brooten Municipal Airport/John O. Bohmer Field? Find the distance to fly.

From to 6D1

Sunrise and sunset
Times for 26-May-2018
 Local
(UTC-5)
 Zulu
(UTC)
Morning civil twilight05:0410:04
Sunrise05:4010:40
Sunset20:5501:55
Evening civil twilight21:3102:31

Current date and time
Zulu (UTC)  26-May-2018 17:02:09
Local (UTC-5)  26-May-2018 12:02:09
 
METAR
KGHW 
12nm NW 
261655Z AUTO 26009KT 10SM CLR 30/14 A2976 RMK AO2
KD39 
14nm NE 
261655Z AUTO 24007G14KT 10SM CLR 32/10 A2974 RMK AO2 T03200098
KPEX 
17nm SE 
261655Z AUTO 29007KT 10SM CLR 30/15 A2974 RMK AO2 T03040148
KBDH 
23nm S 
261655Z AUTO 33004KT 10SM CLR 32/09 A2976 RMK AO2
TAF
KAXN 
25nm NW 
261120Z 2612/2712 24005KT P6SM SKC FM261400 27009KT P6SM SKC FM270100 00000KT P6SM SKC FM270600 00000KT P6SM BKN250
NOTAMs
Click for the latest NOTAMs
NOTAMs are issued by the DoD/FAA and will open in a separate window not controlled by AirNav.

 

 
 

Would you like to see your business listed on this page?

 If your business provides an interesting product or service to pilots, flight crews, aircraft, or users of the Brooten Municipal Airport/John O. Bohmer Field, you should consider listing it here.  To start the listing process, click on the button below
 
Add a business
 

Other Pages about Brooten Municipal Airport/John O. Bohmer Field

PDF page(s) from the Minnesota Airport Directory
 
Update a link
 
Copyright © AirNav, LLC. All rights reserved. Privacy Policy  Contact